createdAt,value
2022-09-15T00:02:23.043Z,14.20
2022-09-15T00:04:52.417Z,14.30
2022-09-15T00:07:20.804Z,14.30
2022-09-15T00:09:48.749Z,14.30
2022-09-15T00:12:17.055Z,14.30
2022-09-15T00:14:45.134Z,14.20
2022-09-15T00:17:13.223Z,14.20
2022-09-15T00:19:41.872Z,14.20
2022-09-15T00:22:11.281Z,14.20
2022-09-15T00:24:39.248Z,14.30
2022-09-15T00:27:07.235Z,14.20
2022-09-15T00:29:35.830Z,14.20
2022-09-15T00:32:03.924Z,14.20
2022-09-15T00:34:31.828Z,14.20
2022-09-15T00:36:59.750Z,14.20
2022-09-15T00:39:29.219Z,14.20
2022-09-15T00:41:57.939Z,14.20
2022-09-15T00:44:54.952Z,14.30
2022-09-15T00:47:26.004Z,14.30
2022-09-15T00:50:02.040Z,14.30
2022-09-15T00:52:36.142Z,14.30
2022-09-15T00:55:09.404Z,14.30
2022-09-15T00:57:49.499Z,14.30
2022-09-15T01:00:20.574Z,14.20
2022-09-15T01:02:49.492Z,14.20
2022-09-15T01:05:22.183Z,14.20
2022-09-15T01:07:55.097Z,14.10
2022-09-15T01:10:28.324Z,14.10
2022-09-15T01:12:59.198Z,14.10
2022-09-15T01:15:33.322Z,14.10
2022-09-15T01:18:10.574Z,14.10
2022-09-15T01:21:01.836Z,14.10
2022-09-15T01:24:07.855Z,14.10
2022-09-15T01:27:06.531Z,14.10
2022-09-15T01:29:58.471Z,14.00
2022-09-15T01:32:47.477Z,14.00
2022-09-15T01:35:26.335Z,14.00
2022-09-15T01:38:00.552Z,14.00
2022-09-15T01:40:33.105Z,14.00
2022-09-15T01:43:02.836Z,14.00
2022-09-15T01:45:35.011Z,14.00
2022-09-15T01:48:05.846Z,14.00
2022-09-15T01:51:01.407Z,13.90
2022-09-15T01:53:30.131Z,13.80
2022-09-15T01:56:05.143Z,13.70
2022-09-15T01:58:34.283Z,13.70
2022-09-15T02:01:09.813Z,13.60
2022-09-15T02:03:45.843Z,13.60
2022-09-15T02:06:20.711Z,13.60
2022-09-15T02:09:07.113Z,13.50
2022-09-15T02:11:41.533Z,13.50
2022-09-15T02:14:18.430Z,13.50
2022-09-15T02:16:52.170Z,13.40
2022-09-15T02:19:32.982Z,13.40
2022-09-15T02:22:22.890Z,13.50
2022-09-15T02:25:05.211Z,13.40
2022-09-15T02:27:39.496Z,13.50
2022-09-15T02:30:16.679Z,13.40
2022-09-15T02:33:06.782Z,13.50
2022-09-15T02:35:36.075Z,13.50
2022-09-15T02:38:09.148Z,13.50
2022-09-15T02:40:42.333Z,13.40
2022-09-15T02:43:16.360Z,13.40
2022-09-15T02:45:47.119Z,13.40
2022-09-15T02:48:16.494Z,13.30
2022-09-15T02:50:44.752Z,13.30
2022-09-15T02:53:22.136Z,13.30
2022-09-15T02:55:59.927Z,13.30
2022-09-15T02:58:29.202Z,13.30
2022-09-15T03:00:57.894Z,13.30
2022-09-15T03:03:38.786Z,13.30
2022-09-15T03:06:20.647Z,13.30
2022-09-15T03:08:51.194Z,13.30
2022-09-15T03:11:22.048Z,13.20
2022-09-15T03:13:53.969Z,13.30
2022-09-15T03:16:22.631Z,13.20
2022-09-15T03:18:57.987Z,13.20
2022-09-15T03:21:28.800Z,13.20
2022-09-15T03:23:57.329Z,13.10
2022-09-15T03:26:25.473Z,13.20
2022-09-15T03:28:57.174Z,13.10
2022-09-15T03:31:27.223Z,13.10
2022-09-15T03:33:58.162Z,13.00
2022-09-15T03:36:39.585Z,13.00
2022-09-15T03:39:08.908Z,13.00
2022-09-15T03:41:39.623Z,12.90
2022-09-15T03:44:07.995Z,12.90
2022-09-15T03:46:36.971Z,12.90
2022-09-15T03:49:06.537Z,12.80
2022-09-15T03:51:41.803Z,12.80
2022-09-15T03:54:11.477Z,12.70
2022-09-15T03:56:40.491Z,12.80
2022-09-15T03:59:11.791Z,12.80
2022-09-15T04:01:42.267Z,12.70
2022-09-15T04:04:12.559Z,12.80
2022-09-15T04:06:41.917Z,12.80
2022-09-15T04:12:02.895Z,12.80
2022-09-15T04:14:33.775Z,12.80
2022-09-15T04:17:04.957Z,12.80
2022-09-15T04:20:04.889Z,12.80
2022-09-15T04:22:47.031Z,12.80
2022-09-15T04:25:44.068Z,12.70
2022-09-15T04:28:17.884Z,12.60
2022-09-15T04:30:47.136Z,12.60
2022-09-15T04:36:44.193Z,12.50
2022-09-15T04:39:14.241Z,12.50
2022-09-15T04:41:48.431Z,12.50
2022-09-15T04:44:17.116Z,12.40
2022-09-15T04:49:57.079Z,12.40
2022-09-15T04:52:47.524Z,12.40
2022-09-15T04:55:24.583Z,12.40
2022-09-15T04:58:02.095Z,12.30
2022-09-15T05:03:30.532Z,12.30
2022-09-15T05:06:15.140Z,12.40
2022-09-15T05:09:39.346Z,12.40
2022-09-15T05:12:28.113Z,12.40
2022-09-15T05:17:53.030Z,12.50
2022-09-15T05:20:23.571Z,12.60
2022-09-15T05:26:11.986Z,12.70
2022-09-15T05:28:50.841Z,12.80
2022-09-15T05:31:28.997Z,12.70
2022-09-15T05:34:20.702Z,12.80
2022-09-15T05:36:51.096Z,12.90
2022-09-15T05:39:26.248Z,12.90
2022-09-15T05:42:11.797Z,13.00
2022-09-15T05:44:57.099Z,13.00
2022-09-15T05:47:31.502Z,13.10
2022-09-15T05:50:09.377Z,13.20
2022-09-15T05:55:47.203Z,13.40
2022-09-15T05:58:39.166Z,13.40
2022-09-15T06:01:36.120Z,13.60
2022-09-15T06:04:37.923Z,13.70
2022-09-15T06:10:55.307Z,14.10
2022-09-15T06:16:37.230Z,14.20
2022-09-15T06:19:09.358Z,14.30
2022-09-15T06:21:38.791Z,14.40
2022-09-15T06:24:12.485Z,14.50
2022-09-15T06:26:43.210Z,14.60
2022-09-15T06:29:14.074Z,14.30
2022-09-15T06:38:20.912Z,14.80
2022-09-15T06:42:03.723Z,15.00
2022-09-15T06:44:58.852Z,14.70
2022-09-15T06:47:37.078Z,14.80
2022-09-15T06:50:05.838Z,14.90
2022-09-15T06:52:34.049Z,15.10
2022-09-15T06:55:02.061Z,15.20
2022-09-15T06:57:30.124Z,15.40
2022-09-15T06:59:59.406Z,15.20
2022-09-15T07:02:27.516Z,15.00
2022-09-15T07:04:55.531Z,15.00
2022-09-15T07:07:23.626Z,15.10
2022-09-15T07:09:51.631Z,15.50
2022-09-15T07:12:23.466Z,16.20
2022-09-15T07:14:51.539Z,16.80
2022-09-15T07:17:20.895Z,16.50
2022-09-15T07:19:48.726Z,16.50
2022-09-15T07:22:16.653Z,16.80
2022-09-15T07:24:44.561Z,16.70
2022-09-15T07:27:12.519Z,16.60
2022-09-15T07:29:40.530Z,16.50
2022-09-15T07:32:08.513Z,16.50
2022-09-15T07:34:37.769Z,16.20
2022-09-15T07:37:06.251Z,16.40
2022-09-15T07:39:34.171Z,16.80
2022-09-15T07:42:02.068Z,16.90
2022-09-15T07:44:29.901Z,16.70
2022-09-15T07:46:57.783Z,16.20
2022-09-15T07:49:25.735Z,16.10
2022-09-15T07:51:54.962Z,15.90
2022-09-15T07:54:23.168Z,16.30
2022-09-15T07:56:51.187Z,16.60
2022-09-15T07:59:19.153Z,16.50
2022-09-15T08:01:47.186Z,16.60
2022-09-15T08:04:15.220Z,16.60
2022-09-15T08:06:43.144Z,16.50
2022-09-15T08:09:14.786Z,16.30
2022-09-15T08:11:42.941Z,16.00
2022-09-15T08:14:10.951Z,16.20
2022-09-15T08:16:39.846Z,16.40
2022-09-15T08:19:07.811Z,16.50
2022-09-15T08:21:35.759Z,16.60
2022-09-15T08:24:03.955Z,16.40
2022-09-15T08:26:33.339Z,16.10
2022-09-15T08:29:01.432Z,15.70
2022-09-15T08:31:29.474Z,15.70
2022-09-15T08:33:57.969Z,15.90
2022-09-15T08:36:27.922Z,16.20
2022-09-15T08:38:56.452Z,16.50
2022-09-15T08:41:28.564Z,16.90
2022-09-15T08:44:03.994Z,16.80
2022-09-15T08:46:38.787Z,16.80
2022-09-15T08:49:13.319Z,17.40
2022-09-15T08:51:46.195Z,17.90
2022-09-15T08:54:21.149Z,18.20
2022-09-15T08:56:49.697Z,17.30
2022-09-15T08:59:20.587Z,16.80
2022-09-15T09:02:24.310Z,16.80
2022-09-15T09:05:05.245Z,16.60
2022-09-15T09:07:57.408Z,16.20
2022-09-15T09:10:31.209Z,16.60
2022-09-15T09:13:11.633Z,16.40
2022-09-15T09:15:54.032Z,16.80
2022-09-15T09:18:35.316Z,16.90
2022-09-15T09:21:10.522Z,16.50
2022-09-15T09:23:46.378Z,16.40
2022-09-15T09:26:15.571Z,16.00
2022-09-15T09:28:49.111Z,16.10
2022-09-15T09:31:21.877Z,16.00
2022-09-15T09:33:56.375Z,16.10
2022-09-15T09:36:24.460Z,16.30
2022-09-15T09:38:52.779Z,16.40
2022-09-15T09:41:28.522Z,16.30
2022-09-15T09:43:57.437Z,16.30
2022-09-15T09:46:26.853Z,16.20
2022-09-15T09:48:59.661Z,16.10
2022-09-15T09:51:33.455Z,15.70
2022-09-15T09:54:13.193Z,16.00
2022-09-15T09:56:41.408Z,16.20
2022-09-15T09:59:36.239Z,16.40
2022-09-15T10:02:20.053Z,16.20
2022-09-15T10:04:49.627Z,16.70
2022-09-15T10:07:21.348Z,16.70
2022-09-15T10:09:52.899Z,16.80
2022-09-15T10:12:24.459Z,17.00
2022-09-15T10:14:55.755Z,17.10
2022-09-15T10:17:28.177Z,17.50
2022-09-15T10:19:57.816Z,17.30
2022-09-15T10:22:29.638Z,17.40
2022-09-15T10:24:58.180Z,17.20
2022-09-15T10:27:32.365Z,17.10
2022-09-15T10:30:14.566Z,16.60
2022-09-15T10:32:44.246Z,16.60
2022-09-15T10:35:13.769Z,16.20
2022-09-15T10:38:04.783Z,16.30
2022-09-15T10:40:37.322Z,16.60
2022-09-15T10:43:22.824Z,16.50
2022-09-15T10:45:59.489Z,16.40
2022-09-15T10:48:41.728Z,16.50
2022-09-15T10:51:21.102Z,17.30
2022-09-15T10:54:02.533Z,17.40
2022-09-15T10:56:35.193Z,17.80
2022-09-15T10:59:24.903Z,17.10
2022-09-15T11:02:41.703Z,16.80
2022-09-15T11:05:33.457Z,16.40
2022-09-15T11:08:22.617Z,16.20
2022-09-15T11:10:57.956Z,16.20
2022-09-15T11:13:32.841Z,16.10
2022-09-15T11:16:09.096Z,16.10
2022-09-15T11:18:54.284Z,16.20
2022-09-15T11:21:30.256Z,16.10
2022-09-15T11:24:21.227Z,16.20
2022-09-15T11:26:52.862Z,16.30
2022-09-15T11:29:25.215Z,16.20
2022-09-15T11:31:57.395Z,16.50
2022-09-15T11:34:29.729Z,16.90
2022-09-15T11:37:04.838Z,16.90
2022-09-15T11:39:38.897Z,17.20
2022-09-15T11:42:09.958Z,17.20
2022-09-15T11:44:41.403Z,16.90
2022-09-15T11:47:20.788Z,17.40
2022-09-15T11:49:53.841Z,17.90
2022-09-15T11:52:45.825Z,17.50
2022-09-15T11:55:24.230Z,16.90
2022-09-15T11:58:00.374Z,16.60
2022-09-15T12:00:28.481Z,16.70
2022-09-15T12:03:06.847Z,16.60
2022-09-15T12:05:40.185Z,17.10
2022-09-15T12:08:20.264Z,17.20
2022-09-15T12:10:52.273Z,18.00
2022-09-15T12:13:22.028Z,18.80
2022-09-15T12:15:51.531Z,18.80
2022-09-15T12:18:38.428Z,18.60
2022-09-15T12:21:14.936Z,18.10
2022-09-15T12:23:47.902Z,18.30
2022-09-15T12:26:18.775Z,18.80
2022-09-15T12:28:55.486Z,19.00
2022-09-15T12:31:35.492Z,19.30
2022-09-15T12:34:06.171Z,19.00
2022-09-15T12:36:44.039Z,18.70
2022-09-15T12:39:25.597Z,18.90
2022-09-15T12:41:55.577Z,18.60
2022-09-15T12:44:30.906Z,18.40
2022-09-15T12:47:00.139Z,18.30
2022-09-15T12:49:32.576Z,19.00
2022-09-15T12:52:02.804Z,18.70
2022-09-15T12:54:34.207Z,19.10
2022-09-15T12:57:03.243Z,19.30
2022-09-15T12:59:31.516Z,19.50
2022-09-15T13:02:00.172Z,19.50
2022-09-15T13:04:46.073Z,19.50
2022-09-15T13:07:34.676Z,18.80
2022-09-15T13:10:29.557Z,18.60
2022-09-15T13:13:09.193Z,18.90
2022-09-15T13:15:41.647Z,19.00
2022-09-15T13:18:11.149Z,18.80
2022-09-15T13:20:44.450Z,18.70
2022-09-15T13:23:16.654Z,18.20
2022-09-15T13:25:47.668Z,17.90
2022-09-15T13:28:17.083Z,17.30
2022-09-15T13:30:56.536Z,17.60
2022-09-15T13:39:49.056Z,17.70
2022-09-15T13:42:33.345Z,17.40
2022-09-15T13:45:35.670Z,17.30
2022-09-15T13:48:36.699Z,17.40
2022-09-15T13:51:13.222Z,17.30
2022-09-15T13:53:52.330Z,17.30
2022-09-15T13:56:24.878Z,17.30
2022-09-15T13:59:03.439Z,17.20
2022-09-15T14:01:38.800Z,16.80
2022-09-15T14:04:11.232Z,16.50
2022-09-15T14:06:41.458Z,16.50
2022-09-15T14:09:14.962Z,16.50
2022-09-15T14:11:44.451Z,16.30
2022-09-15T14:14:32.872Z,16.10
2022-09-15T14:17:01.072Z,16.20
2022-09-15T14:19:34.265Z,16.00
2022-09-15T14:22:03.159Z,15.90
2022-09-15T14:24:33.150Z,15.90
2022-09-15T14:27:08.605Z,15.90
2022-09-15T14:29:40.798Z,16.00
2022-09-15T14:32:14.912Z,16.00
2022-09-15T14:34:44.286Z,15.80
2022-09-15T14:37:23.994Z,15.70
2022-09-15T14:39:56.438Z,15.70
2022-09-15T14:42:30.434Z,15.60
2022-09-15T14:48:01.298Z,15.40
2022-09-15T14:50:32.889Z,15.30
2022-09-15T14:53:04.262Z,15.40
2022-09-15T14:55:37.107Z,15.30
2022-09-15T14:58:07.794Z,15.40
2022-09-15T15:00:42.449Z,15.40
2022-09-15T15:03:29.868Z,15.30
2022-09-15T15:06:27.738Z,15.30
2022-09-15T15:08:55.581Z,15.30
2022-09-15T15:11:25.030Z,15.30
2022-09-15T15:13:53.970Z,15.30
2022-09-15T15:16:25.519Z,15.20
2022-09-15T15:18:56.181Z,15.30
2022-09-15T15:21:37.343Z,15.40
2022-09-15T15:24:19.009Z,15.20
2022-09-15T15:26:49.532Z,15.30
2022-09-15T15:29:42.956Z,15.30
2022-09-15T15:32:17.151Z,15.20
2022-09-15T15:34:53.689Z,15.20
2022-09-15T15:37:27.801Z,15.20
2022-09-15T15:39:56.826Z,15.20
2022-09-15T15:42:26.086Z,15.30
2022-09-15T15:45:02.140Z,15.20
2022-09-15T15:47:37.945Z,15.20
2022-09-15T15:50:14.473Z,15.20
2022-09-15T15:52:43.645Z,15.10
2022-09-15T15:55:14.940Z,15.00
2022-09-15T15:57:43.310Z,14.90
2022-09-15T16:00:24.380Z,15.00
2022-09-15T16:02:54.042Z,15.00
2022-09-15T16:05:27.181Z,14.90
2022-09-15T16:07:57.635Z,14.90
2022-09-15T16:10:31.655Z,14.80
2022-09-15T16:12:59.551Z,14.80
2022-09-15T16:15:28.243Z,14.80
2022-09-15T16:17:57.489Z,14.70
2022-09-15T16:20:25.534Z,14.70
2022-09-15T16:22:53.488Z,14.70
2022-09-15T16:25:28.638Z,14.70
2022-09-15T16:27:57.630Z,14.70
2022-09-15T16:30:25.498Z,14.70
2022-09-15T16:32:53.427Z,14.60
2022-09-15T16:35:39.265Z,14.60
2022-09-15T16:38:07.793Z,14.60
2022-09-15T16:40:37.065Z,14.60
2022-09-15T16:43:05.121Z,14.60
2022-09-15T16:45:38.195Z,14.60
2022-09-15T16:48:08.827Z,14.60
2022-09-15T16:50:40.193Z,14.70
2022-09-15T16:53:14.920Z,14.60
2022-09-15T16:55:46.199Z,14.70
2022-09-15T16:58:15.025Z,14.60
2022-09-15T17:00:44.309Z,14.40
2022-09-15T17:03:17.188Z,14.40
2022-09-15T17:05:49.751Z,14.50
2022-09-15T17:08:19.963Z,14.40
2022-09-15T17:10:49.564Z,14.50
2022-09-15T17:13:19.637Z,14.40
2022-09-15T17:15:48.829Z,14.30
2022-09-15T17:18:17.545Z,14.30
2022-09-15T17:20:48.196Z,14.20
2022-09-15T17:23:20.275Z,14.30
2022-09-15T17:25:52.585Z,14.20
2022-09-15T17:28:22.488Z,14.20
2022-09-15T17:30:50.764Z,14.30
2022-09-15T17:33:19.940Z,14.20
2022-09-15T17:35:50.035Z,14.10
2022-09-15T17:38:20.226Z,14.10
2022-09-15T17:40:48.643Z,14.00
2022-09-15T17:43:18.127Z,14.00
2022-09-15T17:45:46.308Z,13.90
2022-09-15T17:48:14.361Z,13.90
2022-09-15T17:50:42.755Z,13.80
2022-09-15T17:53:14.557Z,13.70
2022-09-15T17:55:43.119Z,13.60
2022-09-15T17:58:11.667Z,13.60
2022-09-15T18:00:41.950Z,13.50
2022-09-15T18:03:19.369Z,13.40
2022-09-15T18:05:47.415Z,13.30
2022-09-15T18:08:16.863Z,13.20
2022-09-15T18:10:45.156Z,13.10
2022-09-15T18:13:15.646Z,12.90
2022-09-15T18:15:43.939Z,12.80
2022-09-15T18:18:14.853Z,12.60
2022-09-15T18:20:43.333Z,12.50
2022-09-15T18:23:17.626Z,12.30
2022-09-15T18:25:47.401Z,12.20
2022-09-15T18:28:16.047Z,12.10
2022-09-15T18:30:46.458Z,12.00
2022-09-15T18:33:16.268Z,11.90
2022-09-15T18:35:44.491Z,11.70
2022-09-15T18:38:13.058Z,11.70
2022-09-15T18:40:46.935Z,11.50
2022-09-15T18:43:14.817Z,11.50
2022-09-15T18:45:43.473Z,11.40
2022-09-15T18:48:13.250Z,11.30
2022-09-15T18:50:41.436Z,11.20
2022-09-15T18:53:09.373Z,11.20
2022-09-15T18:55:37.256Z,11.10
2022-09-15T18:58:06.639Z,11.10
2022-09-15T19:00:34.549Z,11.00
2022-09-15T19:03:05.204Z,10.90
2022-09-15T19:05:33.652Z,10.90
2022-09-15T19:08:02.800Z,10.90
2022-09-15T19:10:31.184Z,10.80
2022-09-15T19:12:59.076Z,10.80
2022-09-15T19:15:29.237Z,10.90
2022-09-15T19:17:57.172Z,10.90
2022-09-15T19:20:25.151Z,11.00
2022-09-15T19:22:53.153Z,11.10
2022-09-15T19:25:21.350Z,11.20
2022-09-15T19:27:49.204Z,11.30
2022-09-15T19:30:17.155Z,11.40
2022-09-15T19:32:46.421Z,11.50
2022-09-15T19:35:14.508Z,11.80
2022-09-15T19:37:43.555Z,11.80
2022-09-15T19:40:14.230Z,11.90
2022-09-15T19:42:43.754Z,12.00
2022-09-15T19:45:13.270Z,12.00
2022-09-15T19:47:41.482Z,12.00
2022-09-15T19:50:12.834Z,12.00
2022-09-15T19:52:40.999Z,11.90
2022-09-15T19:55:10.349Z,11.90
2022-09-15T19:57:39.794Z,11.80
2022-09-15T20:00:09.607Z,11.80
2022-09-15T20:02:37.578Z,11.80
2022-09-15T20:05:06.272Z,11.80
2022-09-15T20:07:35.804Z,11.80
2022-09-15T20:10:03.895Z,11.90
2022-09-15T20:12:31.826Z,11.90
2022-09-15T20:14:59.688Z,11.80
2022-09-15T20:17:27.815Z,11.80
2022-09-15T20:19:55.754Z,11.70
2022-09-15T20:22:23.870Z,11.70
2022-09-15T20:24:53.098Z,11.70
2022-09-15T20:27:21.107Z,11.70
2022-09-15T20:29:48.956Z,11.60
2022-09-15T20:32:16.885Z,11.40
2022-09-15T20:34:44.820Z,11.40
2022-09-15T20:37:12.721Z,11.40
2022-09-15T20:39:40.958Z,11.40
2022-09-15T20:42:10.337Z,11.50
2022-09-15T20:44:38.251Z,11.50
2022-09-15T20:47:06.622Z,11.50
2022-09-15T20:49:34.599Z,11.50
2022-09-15T20:52:02.749Z,11.60
2022-09-15T20:54:30.643Z,11.60
2022-09-15T20:56:58.762Z,11.50
2022-09-15T20:59:28.334Z,11.60
2022-09-15T21:01:56.604Z,11.60
2022-09-15T21:04:24.507Z,11.70
2022-09-15T21:06:52.451Z,11.70
2022-09-15T21:09:20.631Z,11.70
2022-09-15T21:11:53.245Z,11.80
2022-09-15T21:14:22.526Z,11.90
2022-09-15T21:16:51.819Z,12.00
2022-09-15T21:19:20.051Z,12.30
2022-09-15T21:21:47.985Z,12.40
2022-09-15T21:24:16.050Z,12.40
2022-09-15T21:26:57.962Z,12.30
2022-09-15T21:29:26.393Z,12.30
2022-09-15T21:31:56.280Z,12.20
2022-09-15T21:34:24.319Z,12.20
2022-09-15T21:36:53.428Z,12.10
2022-09-15T21:39:21.373Z,12.10
2022-09-15T21:41:49.740Z,12.00
2022-09-15T21:44:17.801Z,12.00
2022-09-15T21:46:47.611Z,11.90
2022-09-15T21:49:18.065Z,11.90
2022-09-15T21:51:46.054Z,11.80
2022-09-15T21:54:14.656Z,11.80
2022-09-15T21:56:42.609Z,11.80
2022-09-15T21:59:11.795Z,11.80
2022-09-15T22:01:41.460Z,11.80
2022-09-15T22:04:10.323Z,11.80
2022-09-15T22:06:41.348Z,11.80
2022-09-15T22:09:11.700Z,11.80
2022-09-15T22:11:39.679Z,11.90
2022-09-15T22:14:08.980Z,12.00
2022-09-15T22:16:38.985Z,12.00
2022-09-15T22:19:08.024Z,12.10
2022-09-15T22:21:39.449Z,12.10
2022-09-15T22:24:11.897Z,12.20
2022-09-15T22:26:40.507Z,12.20
2022-09-15T22:29:08.435Z,12.30
2022-09-15T22:31:36.504Z,12.20
2022-09-15T22:34:04.743Z,12.20
2022-09-15T22:36:33.131Z,12.20
2022-09-15T22:39:04.736Z,12.30
2022-09-15T22:41:36.985Z,12.30
2022-09-15T22:44:06.401Z,12.20
2022-09-15T22:46:34.520Z,12.20
2022-09-15T22:49:02.827Z,12.20
2022-09-15T22:51:30.863Z,12.10
2022-09-15T22:53:59.649Z,12.10
2022-09-15T22:56:27.816Z,12.10
2022-09-15T22:58:57.619Z,12.20
2022-09-15T23:01:26.988Z,12.10
2022-09-15T23:03:56.155Z,12.10
2022-09-15T23:06:25.035Z,12.20
2022-09-15T23:08:53.780Z,12.10
2022-09-15T23:11:22.471Z,12.20
2022-09-15T23:13:50.590Z,12.20
2022-09-15T23:16:19.943Z,12.20
2022-09-15T23:18:48.324Z,12.20
2022-09-15T23:21:16.715Z,12.20
2022-09-15T23:23:48.903Z,12.10
2022-09-15T23:26:20.513Z,12.10
2022-09-15T23:28:49.576Z,12.10
2022-09-15T23:31:19.674Z,12.10
2022-09-15T23:33:48.769Z,12.10
2022-09-15T23:36:19.554Z,12.10
2022-09-15T23:38:48.311Z,12.00
2022-09-15T23:41:17.963Z,12.00
2022-09-15T23:43:46.168Z,12.00
2022-09-15T23:46:14.395Z,12.00
2022-09-15T23:48:44.251Z,12.00
2022-09-15T23:51:12.362Z,12.00
2022-09-15T23:53:40.352Z,12.00
2022-09-15T23:56:08.669Z,12.00
2022-09-15T23:58:36.602Z,12.00
